SARF/FMA METAR and TAF weather

Enter ICAO airport designator
Station Type Date Time Source
SARF METAR 2022/11/30 11:00 UTC NOAA

SARF 301100Z 11006KT CAVOK 27/21 Q1003


Station Type Date Time Source
SARF Decoded METAR 2022/11/30 11:00 UTC NOAA

Formosa Aerodrome, Argentina (SARF) 26-12S 058-14W 60M
Nov 30, 2022 - 06:00 AM EST / 2022.11.30 1100 UTC
Wind: from the ESE (110 degrees) at 7 MPH (6 KT):0
Visibility: greater than 7 mile(s):0
Temperature: 80 F (27 C)
Dew Point: 69 F (21 C)
Relative Humidity: 69%
Pressure (altimeter): 29.62 in. Hg (1003 hPa)
ob: SARF 301100Z 11006KT CAVOK 27/21 Q1003
cycle: 11

Station Type Date Time Source
SARF TAF 2022/11/30 12:06 UTC NOAA

TAF SARF 301100Z 3012/0112 05010KT CAVOK TX36/3019Z TN22/0110Z
TEMPO 3016/3022 9999 SCT030

Example: see airport list